Time;durP1;ratioP1;P1;durP2;ratioP2;P2;SDS_P1;SDS_P2;PMS_P1;PMS_P2;Temp;Humidity;BMP_temperature;BMP_pressure;BME280_temperature;BME280_humidity;BME280_pressure;Samples;Min_cycle;Max_cycle;Signal;HPM_P1;HPM_P2
2023/11/30 00:02:02;;;;;;;11.45;8.40;;;1.60;99.90;;;;;;5071773;28;20040;-39
2023/11/30 00:04:27;;;;;;;10.63;7.85;;;1.60;99.90;;;;;;5083691;28;20117;-37
2023/11/30 00:06:53;;;;;;;10.85;7.93;;;1.60;99.90;;;;;;5079781;28;20028;-37
2023/11/30 00:09:18;;;;;;;10.07;8.10;;;1.60;99.90;;;;;;5084553;28;20028;-37
2023/11/30 00:11:44;;;;;;;10.23;7.07;;;1.50;99.90;;;;;;5069985;28;20027;-37
2023/11/30 00:14:10;;;;;;;10.60;7.68;;;1.50;99.90;;;;;;5083964;28;20020;-37
2023/11/30 00:16:36;;;;;;;10.15;7.72;;;1.50;99.90;;;;;;5073059;28;20020;-37
2023/11/30 00:19:01;;;;;;;8.68;7.55;;;1.50;99.90;;;;;;5081770;28;20043;-37
2023/11/30 00:21:27;;;;;;;9.48;7.35;;;1.50;99.90;;;;;;5075117;28;20045;-38
2023/11/30 00:23:53;;;;;;;10.73;7.50;;;1.50;99.90;;;;;;5078548;28;20073;-37
2023/11/30 00:26:18;;;;;;;11.63;8.02;;;1.40;99.90;;;;;;5076960;28;20145;-37
2023/11/30 00:28:46;;;;;;;10.15;7.30;;;1.40;99.90;;;;;;5077089;28;20091;-37
2023/11/30 00:31:12;;;;;;;10.43;7.15;;;1.40;99.90;;;;;;5079950;28;20036;-36
2023/11/30 00:33:37;;;;;;;11.32;7.53;;;1.40;99.90;;;;;;5073739;28;20027;-36
2023/11/30 00:36:06;;;;;;;10.38;7.47;;;1.40;99.90;;;;;;5081167;28;20034;-35
2023/11/30 00:38:32;;;;;;;9.93;7.63;;;1.40;99.90;;;;;;5072206;28;20085;-38
2023/11/30 00:40:57;;;;;;;11.68;7.50;;;1.40;99.90;;;;;;5081574;28;20040;-37
2023/11/30 00:43:23;;;;;;;11.52;7.70;;;1.30;99.90;;;;;;5072021;28;20070;-37
2023/11/30 00:45:48;;;;;;;9.10;7.00;;;1.30;99.90;;;;;;5082063;28;20024;-37
2023/11/30 00:48:14;;;;;;;8.38;7.00;;;1.30;99.90;;;;;;5070046;28;20024;-37
2023/11/30 00:50:39;;;;;;;11.07;7.57;;;1.30;99.90;;;;;;5082538;28;20127;-38
2023/11/30 00:53:05;;;;;;;9.90;7.10;;;1.30;99.90;;;;;;5069241;28;20107;-41
2023/11/30 00:55:31;;;;;;;9.25;7.15;;;1.30;99.90;;;;;;5064446;28;20509;-37
2023/11/30 00:57:56;;;;;;;9.75;7.40;;;1.30;99.90;;;;;;5081742;28;20125;-36
2023/11/30 01:00:22;;;;;;;10.38;7.93;;;1.30;99.90;;;;;;5082053;28;20036;-38
2023/11/30 01:02:47;;;;;;;9.23;7.05;;;1.20;99.90;;;;;;5082479;28;20020;-37
2023/11/30 01:05:13;;;;;;;9.13;6.50;;;1.30;99.90;;;;;;5082269;28;20577;-37
2023/11/30 01:07:38;;;;;;;9.07;6.80;;;1.20;99.90;;;;;;5081378;28;20031;-38
2023/11/30 01:10:05;;;;;;;8.77;6.65;;;1.30;99.90;;;;;;5082857;28;20024;-39
2023/11/30 01:12:33;;;;;;;9.90;6.18;;;1.30;99.90;;;;;;5083093;28;20032;-37
2023/11/30 01:14:59;;;;;;;10.52;6.35;;;1.40;99.90;;;;;;5082255;28;20035;-40
2023/11/30 01:17:24;;;;;;;8.98;6.80;;;1.40;99.90;;;;;;5079685;28;20064;-35
2023/11/30 01:19:50;;;;;;;6.88;6.18;;;1.40;99.90;;;;;;5082419;28;20028;-40
2023/11/30 01:22:16;;;;;;;7.82;6.40;;;1.40;99.90;;;;;;5082264;28;20035;-37
2023/11/30 01:24:42;;;;;;;9.35;7.10;;;1.40;99.90;;;;;;5082622;28;20024;-37
2023/11/30 01:27:10;;;;;;;8.60;6.60;;;1.40;99.90;;;;;;5082906;28;20027;-38
2023/11/30 01:29:36;;;;;;;9.20;7.13;;;1.50;99.90;;;;;;5081779;28;20039;-37
2023/11/30 01:32:02;;;;;;;10.00;6.78;;;1.50;99.90;;;;;;5082272;28;20028;-38
2023/11/30 01:34:27;;;;;;;8.98;7.60;;;1.50;99.90;;;;;;5082541;28;20749;-37
2023/11/30 01:36:53;;;;;;;8.13;6.70;;;1.50;99.90;;;;;;5081104;28;20130;-38
2023/11/30 01:39:19;;;;;;;8.02;6.63;;;1.50;99.90;;;;;;5082124;28;20031;-37
2023/11/30 01:41:45;;;;;;;9.77;7.30;;;1.50;99.90;;;;;;5081422;28;20032;-37
2023/11/30 01:44:10;;;;;;;10.05;7.57;;;1.50;99.90;;;;;;5081934;28;20207;-39
2023/11/30 01:46:37;;;;;;;9.20;6.90;;;1.50;99.90;;;;;;5082709;28;20021;-37
2023/11/30 01:49:06;;;;;;;8.88;7.38;;;1.50;99.90;;;;;;5080392;28;20035;-37
2023/11/30 01:51:35;;;;;;;8.55;7.10;;;1.40;99.90;;;;;;5082508;28;20212;-38
2023/11/30 01:54:01;;;;;;;9.98;7.20;;;1.40;99.90;;;;;;5081806;28;20105;-38
2023/11/30 01:56:29;;;;;;;9.20;7.20;;;1.40;99.90;;;;;;5082057;28;20157;-38
2023/11/30 01:58:55;;;;;;;10.20;8.05;;;1.50;99.90;;;;;;5081158;28;20069;-37
2023/11/30 02:01:24;;;;;;;8.23;6.68;;;1.40;99.90;;;;;;5081671;28;20066;-37
2023/11/30 02:03:50;;;;;;;9.27;7.40;;;1.50;99.90;;;;;;5080382;28;20386;-38
2023/11/30 02:06:17;;;;;;;10.48;6.93;;;1.50;99.90;;;;;;5080563;28;20498;-39
2023/11/30 02:08:43;;;;;;;9.60;6.93;;;1.50;99.90;;;;;;5081107;28;20024;-38
2023/11/30 02:11:09;;;;;;;9.93;6.97;;;1.50;99.90;;;;;;5080538;28;20260;-38
2023/11/30 02:13:34;;;;;;;8.05;6.22;;;1.50;99.90;;;;;;5081319;28;20031;-37
2023/11/30 02:16:00;;;;;;;8.93;7.05;;;1.60;99.90;;;;;;5080668;28;20032;-36
2023/11/30 02:18:25;;;;;;;13.85;6.55;;;1.60;99.90;;;;;;5080878;28;20039;-37
2023/11/30 02:20:51;;;;;;;11.02;6.20;;;1.60;99.90;;;;;;5080719;28;20032;-36
2023/11/30 02:23:17;;;;;;;11.68;6.68;;;1.60;99.90;;;;;;5081747;28;20024;-37
2023/11/30 02:25:42;;;;;;;24.90;6.53;;;1.60;99.90;;;;;;5079955;28;20031;-36
2023/11/30 02:28:08;;;;;;;22.23;6.45;;;1.60;99.90;;;;;;5080328;28;20019;-36
2023/11/30 02:30:35;;;;;;;27.92;6.70;;;1.60;99.90;;;;;;5080623;28;20268;-36
2023/11/30 02:33:01;;;;;;;17.42;6.28;;;1.60;99.90;;;;;;5080016;28;20027;-37
2023/11/30 02:35:27;;;;;;;19.10;5.82;;;1.60;99.90;;;;;;5081094;28;20032;-39
2023/11/30 02:37:52;;;;;;;16.33;5.40;;;1.60;99.90;;;;;;5080020;28;20045;-41
2023/11/30 02:40:18;;;;;;;14.90;6.07;;;1.60;99.90;;;;;;5080979;28;20039;-38
2023/11/30 02:42:44;;;;;;;17.75;6.40;;;1.60;99.90;;;;;;5081170;28;20088;-39
2023/11/30 02:45:09;;;;;;;16.25;6.45;;;1.50;99.90;;;;;;5079292;28;20221;-37
2023/11/30 02:47:35;;;;;;;7.97;6.18;;;1.60;99.90;;;;;;5081355;28;20024;-38
2023/11/30 02:50:01;;;;;;;13.10;6.90;;;1.60;99.90;;;;;;5080920;28;20032;-38
2023/11/30 02:52:26;;;;;;;8.90;6.28;;;1.60;99.90;;;;;;5080433;28;20459;-37
2023/11/30 02:54:52;;;;;;;8.23;6.50;;;1.60;99.90;;;;;;5080385;28;20052;-37
2023/11/30 02:57:19;;;;;;;7.90;6.20;;;1.60;99.90;;;;;;5068043;28;20067;-44
2023/11/30 02:59:47;;;;;;;7.72;6.68;;;1.70;99.90;;;;;;5080611;28;20028;-38
2023/11/30 03:02:14;;;;;;;8.18;6.32;;;1.70;99.90;;;;;;5068481;28;20041;-38
2023/11/30 03:04:39;;;;;;;11.57;7.25;;;1.70;99.90;;;;;;5080533;28;20035;-38
2023/11/30 03:07:05;;;;;;;8.85;6.80;;;1.70;99.90;;;;;;5070419;28;20028;-40
2023/11/30 03:09:31;;;;;;;9.05;6.90;;;1.80;99.90;;;;;;5077363;28;20115;-38
2023/11/30 03:11:56;;;;;;;9.77;7.10;;;1.80;99.90;;;;;;5073465;28;20107;-36
2023/11/30 03:14:22;;;;;;;9.50;7.30;;;1.80;99.90;;;;;;5074344;28;20028;-47
2023/11/30 03:16:47;;;;;;;8.98;6.50;;;1.80;99.90;;;;;;5076694;28;20071;-37
2023/11/30 03:19:13;;;;;;;8.63;6.90;;;1.80;99.90;;;;;;5071393;28;20028;-36
2023/11/30 03:21:39;;;;;;;8.40;6.15;;;1.80;99.90;;;;;;5078269;28;20036;-37
2023/11/30 03:24:07;;;;;;;8.68;6.18;;;1.80;99.90;;;;;;5069157;28;20752;-37
2023/11/30 03:26:33;;;;;;;8.80;6.20;;;1.80;99.90;;;;;;5079191;28;20027;-38
2023/11/30 03:28:58;;;;;;;9.70;6.45;;;1.80;99.90;;;;;;5067704;28;20387;-36
2023/11/30 03:31:24;;;;;;;9.65;6.63;;;1.80;99.90;;;;;;5079893;28;20024;-37
2023/11/30 03:33:50;;;;;;;9.45;7.07;;;1.80;99.90;;;;;;5066401;28;20024;-37
2023/11/30 03:36:15;;;;;;;9.20;7.22;;;1.80;99.90;;;;;;5080086;28;20031;-38
2023/11/30 03:38:41;;;;;;;8.00;6.80;;;1.70;99.90;;;;;;5067152;28;20036;-38
2023/11/30 03:41:06;;;;;;;9.63;6.70;;;1.70;99.90;;;;;;5080147;28;20123;-36
2023/11/30 03:43:32;;;;;;;9.75;7.13;;;1.70;99.90;;;;;;5068241;28;20792;-39
2023/11/30 03:45:57;;;;;;;10.18;7.38;;;1.70;99.90;;;;;;5059152;28;20073;-37
2023/11/30 03:48:26;;;;;;;9.23;6.78;;;1.60;99.90;;;;;;5070539;28;20024;-37
2023/11/30 03:50:51;;;;;;;10.40;7.43;;;1.60;99.90;;;;;;5075845;28;20110;-37
2023/11/30 03:53:17;;;;;;;11.32;7.32;;;1.60;99.90;;;;;;5074103;28;20036;-38
2023/11/30 03:55:43;;;;;;;9.00;7.10;;;1.60;99.90;;;;;;5077513;28;20138;-36
2023/11/30 03:58:09;;;;;;;10.32;7.97;;;1.60;99.90;;;;;;5079986;28;20719;-36
2023/11/30 04:00:34;;;;;;;9.00;6.97;;;1.60;99.90;;;;;;5079634;28;20516;-36
2023/11/30 04:03:00;;;;;;;10.20;7.13;;;1.60;99.90;;;;;;5078442;28;20027;-37
2023/11/30 04:05:26;;;;;;;10.18;7.60;;;1.50;99.90;;;;;;5079072;28;20035;-37
2023/11/30 04:07:51;;;;;;;9.57;7.55;;;1.50;99.90;;;;;;5079040;28;20024;-40
2023/11/30 04:10:17;;;;;;;9.63;7.13;;;1.50;99.90;;;;;;5079248;28;20479;-37
2023/11/30 04:12:42;;;;;;;9.70;7.47;;;1.50;99.90;;;;;;5079062;28;20036;-37
2023/11/30 04:15:08;;;;;;;10.38;7.95;;;1.50;99.90;;;;;;5078509;28;20064;-36
2023/11/30 04:17:34;;;;;;;10.68;7.95;;;1.50;99.90;;;;;;5078249;28;20126;-37
2023/11/30 04:20:03;;;;;;;9.30;8.00;;;1.50;99.90;;;;;;5078524;28;20551;-37
2023/11/30 04:22:29;;;;;;;11.32;8.13;;;1.50;99.90;;;;;;5080025;28;20513;-36
2023/11/30 04:24:55;;;;;;;11.85;8.32;;;1.50;99.90;;;;;;5077176;28;20119;-36
2023/11/30 04:27:20;;;;;;;10.88;7.85;;;1.50;99.90;;;;;;5079486;28;20028;-37
2023/11/30 04:29:46;;;;;;;9.45;7.65;;;1.50;99.90;;;;;;5079672;28;20471;-37
2023/11/30 04:32:11;;;;;;;9.10;6.80;;;1.50;99.90;;;;;;5081902;28;20642;-37
2023/11/30 04:34:37;;;;;;;9.90;7.47;;;1.50;99.90;;;;;;5082581;28;20109;-37
2023/11/30 04:37:02;;;;;;;10.05;7.30;;;1.50;99.90;;;;;;5082485;28;20027;-37
2023/11/30 04:39:28;;;;;;;8.70;7.45;;;1.50;99.90;;;;;;5082267;28;20451;-38
2023/11/30 04:41:53;;;;;;;10.57;7.65;;;1.50;99.90;;;;;;5082877;28;20036;-36
2023/11/30 04:44:20;;;;;;;10.95;7.90;;;1.60;99.90;;;;;;5082892;28;20016;-36
2023/11/30 04:46:46;;;;;;;10.73;8.20;;;1.60;99.90;;;;;;5082446;28;20115;-36
2023/11/30 04:49:11;;;;;;;10.60;7.97;;;1.60;99.90;;;;;;5082270;28;20394;-36
2023/11/30 04:51:37;;;;;;;10.15;7.85;;;1.60;99.90;;;;;;5082784;28;20020;-37
2023/11/30 04:54:02;;;;;;;11.10;7.95;;;1.60;99.90;;;;;;5082855;28;20063;-37
2023/11/30 04:56:28;;;;;;;10.48;7.88;;;1.60;99.90;;;;;;5070050;28;20067;-36
2023/11/30 04:58:53;;;;;;;11.57;7.85;;;1.60;99.90;;;;;;5082738;28;20031;-37
2023/11/30 05:01:19;;;;;;;11.55;8.50;;;1.60;99.90;;;;;;5069875;28;20706;-37
2023/11/30 05:03:45;;;;;;;11.63;8.40;;;1.50;99.90;;;;;;5082181;28;20032;-36
2023/11/30 05:06:10;;;;;;;11.73;8.05;;;1.50;99.90;;;;;;5071998;28;20036;-36
2023/11/30 05:08:36;;;;;;;10.57;8.07;;;1.50;99.90;;;;;;5080728;28;20024;-37
2023/11/30 05:11:02;;;;;;;10.25;7.88;;;1.50;99.90;;;;;;5074584;28;20418;-38
2023/11/30 05:13:27;;;;;;;9.95;7.53;;;1.50;99.90;;;;;;5078105;28;20489;-38
2023/11/30 05:15:58;;;;;;;11.70;7.88;;;1.50;99.90;;;;;;5077440;28;20086;-36
2023/11/30 05:18:24;;;;;;;11.15;8.63;;;1.40;99.90;;;;;;5075896;28;20028;-37
2023/11/30 05:20:49;;;;;;;12.48;8.70;;;1.40;99.90;;;;;;5078831;28;20032;-37
2023/11/30 05:23:15;;;;;;;12.27;8.93;;;1.40;99.90;;;;;;5072718;28;20020;-36
2023/11/30 05:25:40;;;;;;;11.88;8.70;;;1.40;99.90;;;;;;5081028;28;20847;-37
2023/11/30 05:28:06;;;;;;;10.63;7.95;;;1.40;99.90;;;;;;5043850;28;20613;-38
2023/11/30 05:30:32;;;;;;;10.70;8.60;;;1.40;99.90;;;;;;5063516;28;20032;-37
2023/11/30 05:32:57;;;;;;;12.38;8.93;;;1.30;99.90;;;;;;5073412;28;20024;-36
2023/11/30 05:35:23;;;;;;;11.10;8.85;;;1.30;99.90;;;;;;5061719;28;20796;-36
2023/11/30 05:37:49;;;;;;;11.60;8.80;;;1.40;99.90;;;;;;5074248;28;20657;-39
2023/11/30 05:40:16;;;;;;;12.27;9.15;;;1.40;99.90;;;;;;5061489;28;20056;-37
2023/11/30 05:42:45;;;;;;;9.82;7.95;;;1.40;99.90;;;;;;5073436;28;20111;-36
2023/11/30 05:45:11;;;;;;;10.45;8.07;;;1.40;99.90;;;;;;5062307;28;20036;-41
2023/11/30 05:47:36;;;;;;;10.90;8.43;;;1.40;99.90;;;;;;5072479;28;20028;-43
2023/11/30 05:50:03;;;;;;;11.77;8.55;;;1.40;99.90;;;;;;5063074;28;20024;-37
2023/11/30 05:52:30;;;;;;;10.48;8.23;;;1.40;99.90;;;;;;5070146;28;20036;-38
2023/11/30 05:54:57;;;;;;;11.00;8.63;;;1.40;99.90;;;;;;5076652;28;20067;-37
2023/11/30 05:57:23;;;;;;;13.10;8.75;;;1.50;99.90;;;;;;5081391;28;20081;-38
2023/11/30 05:59:48;;;;;;;11.43;8.55;;;1.50;99.90;;;;;;5081863;28;20700;-38
2023/11/30 06:02:17;;;;;;;14.68;10.13;;;1.50;99.90;;;;;;5080822;28;20434;-37
2023/11/30 06:04:53;;;;;;;12.50;8.88;;;1.50;99.90;;;;;;5081885;28;20354;-37
2023/11/30 06:07:20;;;;;;;11.43;9.07;;;1.60;99.90;;;;;;5081624;28;20461;-36
2023/11/30 06:09:46;;;;;;;11.68;9.15;;;1.60;99.90;;;;;;5080793;28;20028;-36
2023/11/30 06:12:11;;;;;;;11.73;8.95;;;1.60;99.90;;;;;;5081044;28;20039;-41
2023/11/30 06:14:38;;;;;;;11.48;8.82;;;1.60;99.90;;;;;;5080706;28;20034;-37
2023/11/30 06:17:04;;;;;;;11.38;8.80;;;1.60;99.90;;;;;;5079988;28;20032;-39
2023/11/30 06:19:30;;;;;;;12.38;9.10;;;1.70;99.90;;;;;;5080834;28;20024;-37
2023/11/30 06:21:56;;;;;;;11.30;8.63;;;1.70;99.90;;;;;;5078407;28;20082;-37
2023/11/30 06:24:22;;;;;;;13.00;8.90;;;1.70;99.90;;;;;;5079236;28;20143;-37
2023/11/30 06:26:47;;;;;;;11.85;8.93;;;1.70;99.90;;;;;;5080221;28;20020;-36
2023/11/30 06:29:15;;;;;;;14.27;9.68;;;1.80;99.90;;;;;;5079998;28;20028;-36
2023/11/30 06:31:41;;;;;;;13.60;9.77;;;1.80;99.90;;;;;;5059800;28;20028;-37
2023/11/30 06:34:07;;;;;;;16.58;10.85;;;1.80;99.90;;;;;;5073853;28;20028;-36
2023/11/30 06:36:33;;;;;;;17.92;11.30;;;1.80;99.90;;;;;;5080530;28;20046;-37
2023/11/30 06:38:58;;;;;;;16.30;11.13;;;1.80;99.90;;;;;;5079301;28;20066;-36
2023/11/30 06:41:24;;;;;;;15.88;10.93;;;1.90;99.90;;;;;;5080750;28;20479;-37
2023/11/30 06:43:50;;;;;;;13.90;10.43;;;1.80;99.90;;;;;;5079439;28;20059;-36
2023/11/30 06:46:22;;;;;;;15.35;11.43;;;1.90;99.90;;;;;;5079568;28;20063;-36
2023/11/30 06:48:49;;;;;;;;;;;1.90;99.90;;;;;;5080427;28;20024;-37
2023/11/30 06:51:15;;;;;;;13.20;9.98;;;1.90;99.90;;;;;;5079657;28;20382;-37
2023/11/30 06:53:41;;;;;;;12.98;9.50;;;1.90;99.90;;;;;;5078108;28;20024;-38
2023/11/30 06:56:10;;;;;;;15.23;10.82;;;1.90;99.90;;;;;;5079981;28;20039;-37
2023/11/30 06:58:36;;;;;;;14.93;10.68;;;1.90;99.90;;;;;;5079225;28;20114;-36
2023/11/30 07:01:07;;;;;;;14.55;10.52;;;1.90;99.90;;;;;;5078443;28;20711;-36
2023/11/30 07:03:34;;;;;;;14.65;10.80;;;2.00;99.90;;;;;;5079757;28;20016;-37
2023/11/30 07:06:00;;;;;;;14.23;11.18;;;2.00;99.90;;;;;;5078391;28;20032;-36
2023/11/30 07:08:25;;;;;;;15.40;10.93;;;2.00;99.90;;;;;;5079450;28;20577;-36
2023/11/30 07:10:51;;;;;;;15.88;11.18;;;2.00;99.90;;;;;;5078867;28;20471;-37
2023/11/30 07:13:17;;;;;;;12.20;10.18;;;2.00;99.90;;;;;;5078883;28;20550;-37
2023/11/30 07:15:43;;;;;;;14.38;10.25;;;2.00;99.90;;;;;;5079276;28;20032;-38
2023/11/30 07:18:11;;;;;;;15.43;11.02;;;2.10;99.90;;;;;;5078745;28;20889;-37
2023/11/30 07:20:36;;;;;;;14.82;10.73;;;2.10;99.90;;;;;;5079051;28;20036;-37
2023/11/30 07:23:04;;;;;;;15.88;11.07;;;2.10;99.90;;;;;;5079545;28;20024;-38
2023/11/30 07:25:30;;;;;;;14.65;10.50;;;2.10;99.90;;;;;;5080009;28;20027;-37
2023/11/30 07:27:56;;;;;;;16.73;10.73;;;2.10;99.90;;;;;;5078752;28;20032;-38
2023/11/30 07:30:21;;;;;;;15.55;10.73;;;2.10;99.90;;;;;;5078751;28;20031;-37
2023/11/30 07:32:47;;;;;;;15.95;10.27;;;2.10;99.90;;;;;;5080016;28;20028;-37
2023/11/30 07:35:13;;;;;;;14.57;10.65;;;2.10;99.90;;;;;;5078908;28;20016;-38
2023/11/30 07:37:39;;;;;;;15.60;10.77;;;2.10;99.90;;;;;;5079894;28;20476;-37
2023/11/30 07:40:06;;;;;;;14.25;10.68;;;2.10;99.90;;;;;;5080146;28;20024;-37
2023/11/30 07:42:32;;;;;;;14.85;10.95;;;2.10;99.90;;;;;;5079213;28;20086;-37
2023/11/30 07:44:57;;;;;;;12.82;9.18;;;2.10;99.90;;;;;;5079526;28;20063;-37
2023/11/30 07:47:23;;;;;;;15.27;11.32;;;2.10;99.90;;;;;;5079280;28;20027;-35
2023/11/30 07:49:49;;;;;;;12.55;9.23;;;2.20;99.90;;;;;;5079111;28;20092;-39
2023/11/30 07:52:15;;;;;;;15.85;11.23;;;2.10;99.90;;;;;;5079497;28;20024;-35
2023/11/30 07:54:41;;;;;;;16.55;11.32;;;2.10;99.90;;;;;;5078225;28;20094;-35
2023/11/30 07:57:06;;;;;;;16.05;11.38;;;2.10;99.90;;;;;;5066943;28;20028;-36
2023/11/30 07:59:32;;;;;;;16.60;11.82;;;2.10;99.90;;;;;;5079471;28;20073;-36
2023/11/30 08:01:58;;;;;;;18.80;12.93;;;2.00;99.90;;;;;;5068977;28;20381;-36
2023/11/30 08:04:23;;;;;;;16.33;12.15;;;2.00;99.90;;;;;;5076364;28;20089;-37
2023/11/30 08:06:49;;;;;;;15.68;11.70;;;1.90;99.90;;;;;;5075521;28;20021;-36
2023/11/30 08:09:14;;;;;;;15.35;10.60;;;1.90;99.90;;;;;;5077629;28;20541;-36
2023/11/30 08:11:41;;;;;;;14.43;11.40;;;1.90;99.90;;;;;;5079458;28;20024;-37
2023/11/30 08:14:07;;;;;;;16.08;10.80;;;1.80;99.90;;;;;;5075825;28;20020;-39
2023/11/30 08:16:33;;;;;;;14.80;10.68;;;1.80;99.90;;;;;;5081552;28;20028;-36
2023/11/30 08:18:59;;;;;;;15.57;10.75;;;1.80;99.90;;;;;;5072469;28;20105;-36
2023/11/30 08:21:24;;;;;;;15.30;10.68;;;1.80;99.90;;;;;;5082274;28;20037;-37
2023/11/30 08:23:50;;;;;;;14.13;10.75;;;1.90;99.90;;;;;;5071532;28;20028;-35
2023/11/30 08:26:16;;;;;;;13.85;10.10;;;1.90;99.90;;;;;;5083028;28;20036;-36
2023/11/30 08:28:45;;;;;;;12.93;9.82;;;1.90;99.90;;;;;;5069933;28;20270;-37
2023/11/30 08:31:11;;;;;;;12.80;9.68;;;1.90;99.90;;;;;;5082567;28;20481;-37
2023/11/30 08:33:37;;;;;;;13.27;10.18;;;1.90;99.90;;;;;;5069897;28;20078;-38
2023/11/30 08:36:04;;;;;;;14.18;9.57;;;1.90;99.90;;;;;;5082960;28;20580;-37
2023/11/30 08:38:31;;;;;;;12.95;9.38;;;2.00;99.90;;;;;;5070350;28;20033;-37
2023/11/30 08:40:57;;;;;;;12.38;8.93;;;2.00;99.90;;;;;;5082944;28;20489;-37
2023/11/30 08:43:23;;;;;;;12.55;9.38;;;2.10;99.90;;;;;;5072465;28;20032;-36
2023/11/30 08:45:49;;;;;;;10.98;7.68;;;2.10;99.90;;;;;;5079228;28;20028;-37
2023/11/30 08:48:15;;;;;;;13.48;9.63;;;2.10;99.90;;;;;;5076071;28;20035;-35
2023/11/30 08:50:40;;;;;;;12.05;9.23;;;2.20;99.90;;;;;;5077537;28;20017;-36
2023/11/30 08:53:06;;;;;;;12.35;9.35;;;2.20;99.90;;;;;;5077945;28;20524;-36
2023/11/30 08:55:32;;;;;;;12.82;9.23;;;2.20;99.90;;;;;;5061028;28;20055;-36
2023/11/30 08:57:58;;;;;;;13.20;9.50;;;2.30;99.90;;;;;;5081679;28;20026;-36
2023/11/30 09:00:24;;;;;;;13.80;9.27;;;2.20;99.90;;;;;;5082668;28;20016;-36
2023/11/30 09:02:49;;;;;;;12.85;9.00;;;2.30;99.90;;;;;;5081991;28;20090;-36
2023/11/30 09:05:15;;;;;;;12.38;8.52;;;2.30;99.90;;;;;;5081621;28;20479;-35
2023/11/30 09:07:42;;;;;;;13.32;8.82;;;2.30;99.90;;;;;;5082579;28;20036;-37
2023/11/30 09:10:08;;;;;;;12.18;9.55;;;2.30;99.90;;;;;;5082945;28;20024;-35
2023/11/30 09:12:34;;;;;;;12.35;9.30;;;2.30;99.90;;;;;;5081857;28;20012;-36
2023/11/30 09:14:59;;;;;;;13.35;8.73;;;2.30;99.90;;;;;;5081459;28;20082;-36
2023/11/30 09:17:25;;;;;;;13.82;9.45;;;2.30;99.90;;;;;;5082006;28;20020;-36
2023/11/30 09:19:50;;;;;;;13.07;9.38;;;2.30;99.90;;;;;;5080731;28;20020;-36
2023/11/30 09:22:17;;;;;;;12.38;9.70;;;2.30;99.90;;;;;;5082371;28;20040;-37
2023/11/30 09:24:43;;;;;;;13.05;9.68;;;2.30;99.90;;;;;;5082370;28;20128;-36
2023/11/30 09:27:09;;;;;;;12.13;9.30;;;2.30;99.90;;;;;;5081976;28;20195;-36
2023/11/30 09:29:36;;;;;;;15.02;9.75;;;2.30;99.90;;;;;;5081720;28;20091;-37
2023/11/30 09:32:03;;;;;;;12.80;9.25;;;2.40;99.90;;;;;;5081635;28;20410;-36
2023/11/30 09:34:29;;;;;;;12.52;9.80;;;2.30;99.90;;;;;;5080300;28;20749;-37
2023/11/30 09:36:55;;;;;;;13.73;10.07;;;2.30;99.90;;;;;;5080263;28;20538;-36
2023/11/30 09:39:21;;;;;;;15.15;10.48;;;2.40;99.90;;;;;;5081798;28;20047;-38
2023/11/30 09:41:47;;;;;;;12.80;10.00;;;2.40;99.90;;;;;;5081343;28;20366;-36
2023/11/30 09:44:12;;;;;;;17.85;11.40;;;2.40;99.90;;;;;;5081392;28;20481;-36
2023/11/30 09:46:38;;;;;;;15.40;11.00;;;2.50;99.90;;;;;;5081939;28;20039;-36
2023/11/30 09:49:06;;;;;;;17.77;11.80;;;2.50;99.90;;;;;;5080964;28;20043;-35
2023/11/30 09:51:32;;;;;;;20.00;12.80;;;2.50;99.90;;;;;;5081753;28;20669;-37
2023/11/30 09:53:58;;;;;;;19.38;12.13;;;2.60;99.90;;;;;;5080718;28;20944;-36
2023/11/30 09:56:27;;;;;;;15.40;10.73;;;2.60;99.90;;;;;;5068857;28;20066;-35
2023/11/30 09:58:54;;;;;;;18.35;12.30;;;2.70;99.90;;;;;;5081330;28;20131;-35
2023/11/30 10:01:20;;;;;;;16.98;12.15;;;2.70;99.90;;;;;;5067885;28;20029;-35
2023/11/30 10:03:46;;;;;;;17.55;11.40;;;2.70;99.90;;;;;;5081027;28;20027;-36
2023/11/30 10:06:12;;;;;;;19.13;11.77;;;2.70;99.90;;;;;;5076800;28;20035;-36
2023/11/30 10:08:39;;;;;;;15.93;11.45;;;2.70;99.90;;;;;;5062790;28;20461;-36
2023/11/30 10:11:13;;;;;;;16.27;11.82;;;2.80;99.90;;;;;;5068505;28;20043;-37
2023/11/30 10:13:39;;;;;;;15.43;11.07;;;2.80;99.90;;;;;;5077284;28;20656;-37
2023/11/30 10:16:06;;;;;;;15.82;11.63;;;2.80;99.90;;;;;;5055406;28;20471;-36
2023/11/30 10:18:33;;;;;;;15.32;10.98;;;2.80;99.90;;;;;;5075091;28;20036;-36
2023/11/30 10:21:00;;;;;;;16.40;11.23;;;2.80;99.90;;;;;;5077188;28;20977;-36
2023/11/30 10:23:26;;;;;;;16.33;11.48;;;2.80;99.90;;;;;;5068583;28;20051;-36
2023/11/30 10:25:53;;;;;;;17.50;10.98;;;2.90;99.90;;;;;;5068820;28;20024;-36
2023/11/30 10:28:21;;;;;;;15.90;11.55;;;2.90;99.90;;;;;;5069707;28;20059;-36
2023/11/30 10:30:53;;;;;;;14.73;11.05;;;2.90;99.90;;;;;;5079116;28;20017;-35
2023/11/30 10:33:25;;;;;;;;;;;2.90;99.90;;;;;;5070211;28;20031;-39
2023/11/30 10:35:52;;;;;;;15.23;10.93;;;2.90;99.90;;;;;;5077992;28;19919;-35
2023/11/30 10:38:38;;;;;;;15.65;10.90;;;3.00;99.90;;;;;;5069590;28;20024;-36
2023/11/30 10:41:29;;;;;;;15.57;11.30;;;3.00;99.90;;;;;;5079005;28;20032;-35
2023/11/30 10:43:58;;;;;;;14.80;10.48;;;3.00;99.90;;;;;;5042561;28;20041;-35
2023/11/30 10:46:26;;;;;;;15.57;10.93;;;3.00;99.90;;;;;;5061625;28;20027;-35
2023/11/30 10:48:53;;;;;;;17.38;11.95;;;3.10;99.90;;;;;;5071076;28;20025;-36
2023/11/30 10:51:19;;;;;;;16.85;12.05;;;3.10;99.90;;;;;;5061151;28;20050;-36
2023/11/30 10:54:04;;;;;;;17.00;12.15;;;3.20;99.90;;;;;;5072493;28;20024;-36
2023/11/30 10:56:31;;;;;;;19.85;12.43;;;3.20;99.90;;;;;;5080028;28;20036;-37
2023/11/30 10:59:01;;;;;;;16.30;12.52;;;3.20;99.90;;;;;;5078541;28;20899;-36
2023/11/30 11:01:27;;;;;;;19.58;13.65;;;3.30;99.90;;;;;;5080751;28;20097;-41
2023/11/30 11:03:57;;;;;;;19.48;13.55;;;3.30;99.90;;;;;;5079966;28;20439;-36
2023/11/30 11:06:26;;;;;;;19.13;13.73;;;3.40;99.90;;;;;;5079792;28;20085;-36
2023/11/30 11:09:21;;;;;;;20.30;14.05;;;3.40;99.90;;;;;;5080133;28;20028;-36
2023/11/30 11:11:49;;;;;;;19.50;12.63;;;3.50;99.90;;;;;;5058508;28;20059;-36
2023/11/30 11:14:28;;;;;;;21.23;14.48;;;3.60;99.90;;;;;;5079901;28;20042;-37
2023/11/30 11:17:05;;;;;;;21.30;14.88;;;3.60;99.90;;;;;;5079880;28;20031;-37
2023/11/30 11:19:32;;;;;;;22.65;14.43;;;3.70;99.90;;;;;;5079966;28;20027;-36
2023/11/30 11:22:00;;;;;;;22.77;14.98;;;3.80;99.90;;;;;;5080149;28;20040;-40
2023/11/30 11:24:27;;;;;;;26.25;17.15;;;3.80;99.90;;;;;;5079476;28;20028;-37
2023/11/30 11:26:59;;;;;;;24.05;15.50;;;3.80;99.90;;;;;;5079734;28;20501;-37
2023/11/30 11:29:26;;;;;;;26.75;16.48;;;3.70;99.90;;;;;;5080016;28;20020;-37
2023/11/30 11:31:51;;;;;;;26.15;17.00;;;3.70;99.90;;;;;;5079956;28;20390;-37
2023/11/30 11:34:17;;;;;;;23.95;15.45;;;3.70;99.90;;;;;;5079853;28;20020;-36
2023/11/30 11:36:43;;;;;;;25.00;16.13;;;3.70;99.90;;;;;;5079556;28;20035;-39
2023/11/30 11:39:13;;;;;;;27.40;17.65;;;3.80;99.90;;;;;;5079548;28;20032;-37
2023/11/30 11:41:38;;;;;;;28.17;18.65;;;3.80;99.90;;;;;;5079248;28;20880;-36
2023/11/30 11:44:04;;;;;;;28.98;17.02;;;3.80;99.90;;;;;;5079443;28;20016;-36
2023/11/30 11:46:29;;;;;;;28.42;17.33;;;3.80;99.90;;;;;;5079160;28;20027;-36
2023/11/30 11:48:55;;;;;;;28.02;17.48;;;3.80;99.90;;;;;;5079821;28;20034;-36
2023/11/30 11:51:21;;;;;;;28.80;18.27;;;3.80;99.90;;;;;;5079559;28;20036;-35
2023/11/30 11:53:47;;;;;;;30.63;17.60;;;3.80;99.90;;;;;;5078404;28;20369;-36
2023/11/30 11:56:12;;;;;;;27.33;17.55;;;3.80;99.90;;;;;;5068701;28;20044;-37
2023/11/30 11:58:43;;;;;;;30.38;18.63;;;3.80;99.90;;;;;;5077912;28;20797;-37
2023/11/30 12:01:10;;;;;;;28.52;18.23;;;3.80;99.90;;;;;;5067543;28;20814;-36
2023/11/30 12:03:49;;;;;;;28.98;18.33;;;3.80;99.90;;;;;;5079658;28;20034;-35
2023/11/30 12:06:30;;;;;;;31.38;18.85;;;3.80;99.90;;;;;;5069260;28;20032;-36
2023/11/30 12:08:56;;;;;;;29.95;17.92;;;3.80;99.90;;;;;;5059805;28;20048;-35
2023/11/30 12:11:21;;;;;;;31.35;18.58;;;3.80;99.90;;;;;;5053076;28;20703;-35
2023/11/30 12:13:54;;;;;;;30.25;18.70;;;3.80;99.90;;;;;;5059374;28;20874;-35
2023/11/30 12:16:19;;;;;;;30.67;18.42;;;3.80;99.90;;;;;;5071099;28;20024;-35
2023/11/30 12:18:45;;;;;;;30.92;19.48;;;3.70;99.90;;;;;;5058752;28;20545;-36
2023/11/30 12:21:10;;;;;;;30.50;18.45;;;3.70;99.90;;;;;;5071916;28;20147;-37
2023/11/30 12:23:36;;;;;;;30.58;18.63;;;3.70;99.90;;;;;;5059622;28;20100;-36
2023/11/30 12:26:05;;;;;;;33.03;19.58;;;3.70;99.90;;;;;;5070318;28;20032;-35
2023/11/30 12:28:32;;;;;;;27.17;17.77;;;3.70;99.90;;;;;;5059612;28;20017;-35
2023/11/30 12:30:57;;;;;;;29.77;20.13;;;3.70;99.90;;;;;;5050351;28;20178;-36
2023/11/30 12:33:23;;;;;;;31.23;19.95;;;3.80;99.90;;;;;;5062758;28;20467;-37
2023/11/30 12:35:52;;;;;;;30.50;18.98;;;3.80;99.90;;;;;;5065548;28;20020;-38
2023/11/30 12:38:17;;;;;;;30.80;19.17;;;3.80;99.90;;;;;;5065057;28;20036;-37
2023/11/30 12:40:43;;;;;;;30.27;18.95;;;3.80;99.90;;;;;;5062326;28;20051;-36
2023/11/30 12:43:08;;;;;;;25.67;16.42;;;3.90;99.90;;;;;;5066130;28;20379;-37